sensor_id;sensor_type;location;lat;lon;timestamp;P1;durP1;ratioP1;P2;durP2;ratioP2
57323;SDS011;43160;51.008;18.248;2023-07-13T00:08:32;16.70;;;8.10;;
57323;SDS011;43160;51.008;18.248;2023-07-13T00:18:19;17.50;;;7.50;;
57323;SDS011;43160;51.008;18.248;2023-07-13T00:28:02;16.60;;;8.00;;
57323;SDS011;43160;51.008;18.248;2023-07-13T00:37:46;13.90;;;7.70;;
57323;SDS011;43160;51.008;18.248;2023-07-13T00:47:34;15.40;;;7.40;;
57323;SDS011;43160;51.008;18.248;2023-07-13T00:57:19;13.00;;;6.10;;
57323;SDS011;43160;51.008;18.248;2023-07-13T01:07:05;12.10;;;5.80;;
57323;SDS011;43160;51.008;18.248;2023-07-13T01:16:50;16.20;;;5.90;;
57323;SDS011;43160;51.008;18.248;2023-07-13T01:26:40;14.50;;;7.40;;
57323;SDS011;43160;51.008;18.248;2023-07-13T01:36:24;12.60;;;6.20;;
57323;SDS011;43160;51.008;18.248;2023-07-13T01:46:07;16.60;;;8.80;;
57323;SDS011;43160;51.008;18.248;2023-07-13T01:55:50;12.10;;;6.10;;
57323;SDS011;43160;51.008;18.248;2023-07-13T02:05:33;20.60;;;8.40;;
57323;SDS011;43160;51.008;18.248;2023-07-13T02:15:16;12.90;;;6.10;;
57323;SDS011;43160;51.008;18.248;2023-07-13T02:25:00;14.80;;;7.00;;
57323;SDS011;43160;51.008;18.248;2023-07-13T02:34:44;19.90;;;6.90;;
57323;SDS011;43160;51.008;18.248;2023-07-13T02:44:29;13.40;;;6.70;;
57323;SDS011;43160;51.008;18.248;2023-07-13T02:54:12;15.20;;;6.50;;
57323;SDS011;43160;51.008;18.248;2023-07-13T03:04:00;15.20;;;6.30;;
57323;SDS011;43160;51.008;18.248;2023-07-13T03:13:47;28.30;;;7.50;;
57323;SDS011;43160;51.008;18.248;2023-07-13T03:23:33;14.90;;;7.00;;
57323;SDS011;43160;51.008;18.248;2023-07-13T03:33:28;17.00;;;7.80;;
57323;SDS011;43160;51.008;18.248;2023-07-13T03:43:12;15.50;;;8.20;;
57323;SDS011;43160;51.008;18.248;2023-07-13T03:52:57;14.30;;;7.20;;
57323;SDS011;43160;51.008;18.248;2023-07-13T04:02:51;12.80;;;6.70;;
57323;SDS011;43160;51.008;18.248;2023-07-13T04:12:34;12.70;;;6.40;;
57323;SDS011;43160;51.008;18.248;2023-07-13T04:22:17;12.60;;;6.10;;
57323;SDS011;43160;51.008;18.248;2023-07-13T04:32:00;13.60;;;5.70;;
57323;SDS011;43160;51.008;18.248;2023-07-13T04:41:46;11.90;;;5.70;;
57323;SDS011;43160;51.008;18.248;2023-07-13T04:51:29;11.50;;;5.80;;
57323;SDS011;43160;51.008;18.248;2023-07-13T05:01:13;10.90;;;4.20;;
57323;SDS011;43160;51.008;18.248;2023-07-13T05:11:01;11.30;;;5.40;;
57323;SDS011;43160;51.008;18.248;2023-07-13T05:20:59;12.10;;;5.60;;
57323;SDS011;43160;51.008;18.248;2023-07-13T05:30:48;12.10;;;5.90;;
57323;SDS011;43160;51.008;18.248;2023-07-13T05:40:32;14.10;;;6.90;;
57323;SDS011;43160;51.008;18.248;2023-07-13T05:50:15;13.70;;;6.70;;
57323;SDS011;43160;51.008;18.248;2023-07-13T05:59:59;15.80;;;9.00;;
57323;SDS011;43160;51.008;18.248;2023-07-13T06:09:43;17.20;;;10.00;;
57323;SDS011;43160;51.008;18.248;2023-07-13T06:19:32;11.10;;;5.90;;
57323;SDS011;43160;51.008;18.248;2023-07-13T06:29:16;13.30;;;6.60;;
57323;SDS011;43160;51.008;18.248;2023-07-13T06:38:59;10.50;;;3.50;;
57323;SDS011;43160;51.008;18.248;2023-07-13T06:48:46;8.90;;;3.40;;
57323;SDS011;43160;51.008;18.248;2023-07-13T06:58:30;14.10;;;5.90;;
57323;SDS011;43160;51.008;18.248;2023-07-13T07:08:15;7.40;;;2.80;;
57323;SDS011;43160;51.008;18.248;2023-07-13T07:17:58;6.70;;;2.70;;
57323;SDS011;43160;51.008;18.248;2023-07-13T07:27:42;8.20;;;2.70;;
57323;SDS011;43160;51.008;18.248;2023-07-13T07:37:26;11.40;;;2.80;;
57323;SDS011;43160;51.008;18.248;2023-07-13T07:47:09;7.70;;;2.50;;
57323;SDS011;43160;51.008;18.248;2023-07-13T07:56:53;8.80;;;3.00;;
57323;SDS011;43160;51.008;18.248;2023-07-13T08:06:39;8.60;;;2.70;;
57323;SDS011;43160;51.008;18.248;2023-07-13T08:16:23;13.70;;;2.80;;
57323;SDS011;43160;51.008;18.248;2023-07-13T08:26:07;7.90;;;2.70;;
57323;SDS011;43160;51.008;18.248;2023-07-13T08:43:16;13.30;;;3.20;;
57323;SDS011;43160;51.008;18.248;2023-07-13T08:53:32;13.30;;;3.50;;
57323;SDS011;43160;51.008;18.248;2023-07-13T09:03:58;11.80;;;3.40;;
57323;SDS011;43160;51.008;18.248;2023-07-13T09:24:41;11.60;;;4.20;;
57323;SDS011;43160;51.008;18.248;2023-07-13T09:34:40;13.50;;;2.70;;
57323;SDS011;43160;51.008;18.248;2023-07-13T09:54:38;11.50;;;2.60;;
57323;SDS011;43160;51.008;18.248;2023-07-13T09:57:11;10.20;;;3.80;;
57323;SDS011;43160;51.008;18.248;2023-07-13T10:07:29;7.10;;;2.60;;
57323;SDS011;43160;51.008;18.248;2023-07-13T10:17:26;8.10;;;2.40;;
57323;SDS011;43160;51.008;18.248;2023-07-13T10:27:50;7.90;;;2.50;;
57323;SDS011;43160;51.008;18.248;2023-07-13T10:37:49;7.60;;;2.20;;
57323;SDS011;43160;51.008;18.248;2023-07-13T10:47:48;6.00;;;2.40;;
57323;SDS011;43160;51.008;18.248;2023-07-13T10:58:00;7.50;;;2.20;;
57323;SDS011;43160;51.008;18.248;2023-07-13T11:08:15;8.70;;;2.90;;
57323;SDS011;43160;51.008;18.248;2023-07-13T11:18:53;8.10;;;2.40;;
57323;SDS011;43160;51.008;18.248;2023-07-13T11:29:45;9.00;;;2.70;;
57323;SDS011;43160;51.008;18.248;2023-07-13T11:40:04;9.40;;;3.10;;
57323;SDS011;43160;51.008;18.248;2023-07-13T11:49:54;12.90;;;2.90;;
57323;SDS011;43160;51.008;18.248;2023-07-13T11:59:56;8.30;;;2.40;;
57323;SDS011;43160;51.008;18.248;2023-07-13T12:09:59;6.90;;;2.30;;
57323;SDS011;43160;51.008;18.248;2023-07-13T12:19:49;6.90;;;2.00;;
57323;SDS011;43160;51.008;18.248;2023-07-13T12:29:52;8.70;;;2.40;;
57323;SDS011;43160;51.008;18.248;2023-07-13T12:39:46;8.30;;;2.20;;
57323;SDS011;43160;51.008;18.248;2023-07-13T12:49:46;6.60;;;2.50;;
57323;SDS011;43160;51.008;18.248;2023-07-13T13:00:23;8.30;;;2.90;;
57323;SDS011;43160;51.008;18.248;2023-07-13T13:10:23;6.30;;;2.60;;
57323;SDS011;43160;51.008;18.248;2023-07-13T13:37:43;6.90;;;2.00;;
57323;SDS011;43160;51.008;18.248;2023-07-13T13:47:33;7.80;;;1.90;;
57323;SDS011;43160;51.008;18.248;2023-07-13T13:57:22;9.90;;;2.10;;
57323;SDS011;43160;51.008;18.248;2023-07-13T14:07:25;6.90;;;2.20;;
57323;SDS011;43160;51.008;18.248;2023-07-13T14:17:21;9.20;;;2.30;;
57323;SDS011;43160;51.008;18.248;2023-07-13T14:27:15;6.30;;;2.30;;
57323;SDS011;43160;51.008;18.248;2023-07-13T14:37:03;7.90;;;2.50;;
57323;SDS011;43160;51.008;18.248;2023-07-13T14:46:50;6.00;;;2.00;;
57323;SDS011;43160;51.008;18.248;2023-07-13T14:56:43;6.80;;;2.10;;
57323;SDS011;43160;51.008;18.248;2023-07-13T15:06:28;6.70;;;2.40;;
57323;SDS011;43160;51.008;18.248;2023-07-13T15:16:15;6.30;;;2.20;;
57323;SDS011;43160;51.008;18.248;2023-07-13T15:26:10;6.30;;;2.10;;
57323;SDS011;43160;51.008;18.248;2023-07-13T15:36:01;8.70;;;2.50;;
57323;SDS011;43160;51.008;18.248;2023-07-13T15:45:49;8.10;;;1.80;;
57323;SDS011;43160;51.008;18.248;2023-07-13T15:55:38;4.00;;;1.80;;
57323;SDS011;43160;51.008;18.248;2023-07-13T16:05:25;8.80;;;3.00;;
57323;SDS011;43160;51.008;18.248;2023-07-13T16:15:23;8.30;;;2.60;;
57323;SDS011;43160;51.008;18.248;2023-07-13T16:25:22;9.00;;;3.00;;
57323;SDS011;43160;51.008;18.248;2023-07-13T16:35:32;9.70;;;3.20;;
57323;SDS011;43160;51.008;18.248;2023-07-13T16:45:21;9.20;;;2.80;;
57323;SDS011;43160;51.008;18.248;2023-07-13T16:55:11;9.70;;;3.20;;
57323;SDS011;43160;51.008;18.248;2023-07-13T17:05:30;9.40;;;3.30;;
57323;SDS011;43160;51.008;18.248;2023-07-13T17:15:39;16.90;;;2.90;;
57323;SDS011;43160;51.008;18.248;2023-07-13T17:25:44;15.10;;;3.80;;
57323;SDS011;43160;51.008;18.248;2023-07-13T17:35:34;10.60;;;3.70;;
57323;SDS011;43160;51.008;18.248;2023-07-13T17:45:27;10.20;;;3.20;;
57323;SDS011;43160;51.008;18.248;2023-07-13T17:55:31;9.20;;;3.40;;
57323;SDS011;43160;51.008;18.248;2023-07-13T18:05:28;11.70;;;4.90;;
57323;SDS011;43160;51.008;18.248;2023-07-13T18:15:21;12.70;;;4.90;;
57323;SDS011;43160;51.008;18.248;2023-07-13T18:22:46;11.70;;;4.00;;
57323;SDS011;43160;51.008;18.248;2023-07-13T18:32:34;8.80;;;2.90;;
57323;SDS011;43160;51.008;18.248;2023-07-13T18:42:22;9.50;;;3.00;;
57323;SDS011;43160;51.008;18.248;2023-07-13T18:52:20;10.70;;;4.00;;
57323;SDS011;43160;51.008;18.248;2023-07-13T19:02:22;9.10;;;3.40;;
57323;SDS011;43160;51.008;18.248;2023-07-13T19:12:23;13.60;;;5.20;;
57323;SDS011;43160;51.008;18.248;2023-07-13T19:22:11;14.40;;;5.00;;
57323;SDS011;43160;51.008;18.248;2023-07-13T19:32:03;16.60;;;4.80;;
57323;SDS011;43160;51.008;18.248;2023-07-13T19:42:10;10.80;;;5.60;;
57323;SDS011;43160;51.008;18.248;2023-07-13T19:52:00;22.70;;;7.20;;
57323;SDS011;43160;51.008;18.248;2023-07-13T20:01:52;19.30;;;5.90;;
57323;SDS011;43160;51.008;18.248;2023-07-13T20:11:40;13.90;;;6.80;;
57323;SDS011;43160;51.008;18.248;2023-07-13T20:21:35;13.00;;;5.60;;
57323;SDS011;43160;51.008;18.248;2023-07-13T20:31:21;13.00;;;6.10;;
57323;SDS011;43160;51.008;18.248;2023-07-13T20:48:29;14.40;;;5.00;;
57323;SDS011;43160;51.008;18.248;2023-07-13T20:58:17;14.90;;;7.20;;
57323;SDS011;43160;51.008;18.248;2023-07-13T21:08:14;9.30;;;2.30;;
57323;SDS011;43160;51.008;18.248;2023-07-13T21:18:03;10.50;;;4.30;;
57323;SDS011;43160;51.008;18.248;2023-07-13T21:27:58;13.50;;;4.10;;
57323;SDS011;43160;51.008;18.248;2023-07-13T21:37:49;9.30;;;2.90;;
57323;SDS011;43160;51.008;18.248;2023-07-13T21:47:50;8.50;;;3.00;;
57323;SDS011;43160;51.008;18.248;2023-07-13T21:57:44;9.20;;;3.40;;
57323;SDS011;43160;51.008;18.248;2023-07-13T22:07:43;18.30;;;5.30;;
57323;SDS011;43160;51.008;18.248;2023-07-13T22:17:32;12.70;;;3.70;;
57323;SDS011;43160;51.008;18.248;2023-07-13T22:27:15;7.60;;;2.10;;
57323;SDS011;43160;51.008;18.248;2023-07-13T22:37:03;10.90;;;5.20;;
57323;SDS011;43160;51.008;18.248;2023-07-13T22:54:12;10.40;;;4.80;;
57323;SDS011;43160;51.008;18.248;2023-07-13T23:03:58;8.90;;;3.90;;
57323;SDS011;43160;51.008;18.248;2023-07-13T23:13:53;8.20;;;2.60;;
57323;SDS011;43160;51.008;18.248;2023-07-13T23:23:40;8.20;;;3.40;;
57323;SDS011;43160;51.008;18.248;2023-07-13T23:33:39;13.40;;;4.10;;
57323;SDS011;43160;51.008;18.248;2023-07-13T23:43:32;7.00;;;3.70;;
57323;SDS011;43160;51.008;18.248;2023-07-13T23:53:15;11.50;;;4.30;;
